Time;durP1;ratioP1;P1;durP2;ratioP2;P2;SDS_P1;SDS_P2;PMS_P1;PMS_P2;Temp;Humidity;BMP_temperature;BMP_pressure;BME280_temperature;BME280_humidity;BME280_pressure;Samples;Min_cycle;Max_cycle;Signal;HPM_P1;HPM_P2
2024/01/29 00:02:02;;;;;;;4.05;2.42;;;;;;;;;;5086352;28;20125;-88
2024/01/29 00:04:28;;;;;;;5.03;2.50;;;4.70;99.90;;;;;;5078163;27;20074;-88
2024/01/29 00:06:54;;;;;;;4.47;2.30;;;4.60;99.90;;;;;;5073449;28;20082;-89
2024/01/29 00:09:20;;;;;;;4.15;2.10;;;4.50;99.90;;;;;;5084383;28;20042;-89
2024/01/29 00:11:46;;;;;;;3.80;2.50;;;4.70;99.90;;;;;;5071093;28;20120;-87
2024/01/29 00:14:12;;;;;;;4.45;2.42;;;4.60;99.90;;;;;;5085066;28;20035;-88
2024/01/29 00:16:38;;;;;;;4.30;2.20;;;4.70;99.90;;;;;;5079753;28;20043;-88
2024/01/29 00:19:04;;;;;;;5.43;2.20;;;4.60;99.90;;;;;;5076733;28;20457;-88
2024/01/29 00:21:30;;;;;;;5.32;2.63;;;4.60;99.90;;;;;;5078732;28;20051;-88
2024/01/29 00:23:59;;;;;;;5.15;2.15;;;4.50;99.90;;;;;;5068015;28;20040;-88
2024/01/29 00:26:25;;;;;;;4.97;2.30;;;4.60;99.90;;;;;;5066806;28;20040;-88
2024/01/29 00:28:51;;;;;;;4.43;2.25;;;4.50;99.90;;;;;;5076235;28;20468;-88
2024/01/29 00:31:16;;;;;;;3.53;2.20;;;4.40;99.90;;;;;;5086248;28;20032;-88
2024/01/29 00:33:43;;;;;;;3.03;2.00;;;4.40;99.90;;;;;;5064989;28;20109;-88
2024/01/29 00:36:08;;;;;;;4.10;2.65;;;4.40;99.90;;;;;;5075318;28;20043;-89
2024/01/29 00:38:34;;;;;;;3.15;2.45;;;4.40;99.90;;;;;;5077459;28;20036;-89
2024/01/29 00:41:00;;;;;;;2.78;2.00;;;4.40;99.90;;;;;;5081247;28;20035;-88
2024/01/29 00:43:25;;;;;;;4.20;2.40;;;4.40;99.90;;;;;;5041957;28;20035;-88
2024/01/29 00:45:51;;;;;;;3.50;2.05;;;4.40;99.90;;;;;;5067098;28;20449;-88
2024/01/29 00:48:17;;;;;;;3.97;2.33;;;4.40;99.90;;;;;;5041476;28;20040;-89
2024/01/29 00:50:42;;;;;;;6.38;2.35;;;4.40;99.90;;;;;;5049663;28;20036;-88
2024/01/29 00:53:08;;;;;;;7.20;2.55;;;4.30;99.90;;;;;;5073782;28;20556;-88
2024/01/29 00:55:34;;;;;;;4.63;2.15;;;4.40;99.90;;;;;;5070863;28;20070;-88
2024/01/29 00:57:59;;;;;;;4.25;2.20;;;4.30;99.90;;;;;;5070219;28;20033;-88
2024/01/29 01:00:25;;;;;;;4.10;2.33;;;4.30;99.90;;;;;;5057415;28;20032;-88
2024/01/29 01:02:51;;;;;;;3.92;2.50;;;4.20;99.90;;;;;;5076533;28;20027;-89
2024/01/29 01:05:16;;;;;;;4.35;2.50;;;5.40;99.90;;;;;;5059136;28;20055;-87
2024/01/29 01:07:42;;;;;;;4.30;2.30;;;4.60;99.90;;;;;;5065814;28;20445;-88
2024/01/29 01:10:08;;;;;;;3.78;2.30;;;;;;;;;;5067065;28;20103;-88
2024/01/29 01:12:34;;;;;;;3.22;1.90;;;4.20;99.90;;;;;;5086045;28;20035;-89
2024/01/29 01:14:59;;;;;;;3.67;2.53;;;4.10;99.90;;;;;;5037403;28;20054;-88
2024/01/29 01:17:25;;;;;;;3.63;2.33;;;4.10;99.90;;;;;;5036661;28;20024;-88
2024/01/29 01:19:51;;;;;;;3.42;2.20;;;4.00;99.90;;;;;;5037486;28;20109;-89
2024/01/29 01:22:17;;;;;;;3.88;2.38;;;4.00;99.90;;;;;;5060099;28;20040;-89
2024/01/29 01:24:42;;;;;;;3.78;1.83;;;3.90;99.90;;;;;;5056496;28;20448;-89
2024/01/29 01:27:09;;;;;;;3.17;2.13;;;4.10;99.90;;;;;;5051753;28;20056;-88
2024/01/29 01:29:34;;;;;;;3.63;2.08;;;2.60;99.90;;;;;;5060193;28;20480;-89
2024/01/29 01:32:00;;;;;;;4.90;2.20;;;3.80;99.90;;;;;;5049326;28;20060;-88
2024/01/29 01:34:26;;;;;;;5.00;2.50;;;3.80;99.90;;;;;;5057146;28;20028;-89
2024/01/29 01:36:51;;;;;;;4.97;2.30;;;3.70;99.90;;;;;;5055791;28;20043;-88
2024/01/29 01:39:17;;;;;;;3.40;1.75;;;3.80;99.90;;;;;;5068625;28;20040;-87
2024/01/29 01:41:52;;;;;;;3.75;2.33;;;3.70;99.90;;;;;;5061597;28;20080;-88
2024/01/29 01:44:18;;;;;;;3.55;2.35;;;3.70;99.90;;;;;;5076740;28;20394;-87
2024/01/29 01:46:43;;;;;;;3.78;2.28;;;3.70;99.90;;;;;;5065761;28;20040;-87
2024/01/29 01:49:10;;;;;;;3.15;2.13;;;3.60;99.90;;;;;;5066452;28;20036;-88
2024/01/29 01:51:37;;;;;;;4.25;2.25;;;3.60;99.90;;;;;;5080667;28;20186;-88
2024/01/29 01:54:03;;;;;;;4.05;2.35;;;3.60;99.90;;;;;;5053347;28;20409;-89
2024/01/29 01:56:30;;;;;;;4.30;2.75;;;3.60;99.90;;;;;;5077367;28;20480;-89
2024/01/29 01:58:59;;;;;;;4.40;2.25;;;3.60;99.90;;;;;;5064596;28;20041;-89
2024/01/29 02:01:26;;;;;;;3.60;2.20;;;3.60;99.90;;;;;;5059594;28;20040;-88
2024/01/29 02:03:51;;;;;;;3.00;2.17;;;3.60;99.90;;;;;;5039688;28;20052;-89
2024/01/29 02:06:17;;;;;;;4.65;2.42;;;2.60;99.90;;;;;;5053633;28;20040;-89
2024/01/29 02:08:44;;;;;;;5.38;2.25;;;3.60;99.90;;;;;;5042071;28;20043;-88
2024/01/29 02:11:10;;;;;;;5.32;2.20;;;3.60;99.90;;;;;;5070420;28;20432;-88
2024/01/29 02:13:36;;;;;;;3.28;2.10;;;3.60;99.90;;;;;;5039674;28;20397;-89
2024/01/29 02:16:03;;;;;;;3.58;2.22;;;3.50;99.90;;;;;;5071669;28;20173;-88
2024/01/29 02:18:33;;;;;;;;;;;3.50;99.90;;;;;;5069113;28;20140;-89
2024/01/29 02:20:59;;;;;;;3.65;2.00;;;3.50;99.90;;;;;;5079818;28;20296;-88
2024/01/29 02:23:25;;;;;;;4.07;2.17;;;3.50;99.90;;;;;;5071750;28;20040;-88
2024/01/29 02:25:51;;;;;;;4.13;2.47;;;3.90;99.90;;;;;;5074207;28;20039;-88
2024/01/29 02:28:17;;;;;;;3.78;2.08;;;3.50;99.90;;;;;;5074723;28;20054;-89
2024/01/29 02:30:43;;;;;;;6.13;2.15;;;3.40;99.90;;;;;;5064800;28;20041;-89
2024/01/29 02:33:09;;;;;;;4.20;2.40;;;3.40;99.90;;;;;;5056805;28;20369;-88
2024/01/29 02:35:35;;;;;;;4.25;2.15;;;3.40;99.90;;;;;;5047222;28;20036;-89
2024/01/29 02:38:01;;;;;;;3.13;2.00;;;3.50;99.90;;;;;;5062604;28;20064;-89
2024/01/29 02:40:26;;;;;;;4.10;2.42;;;3.40;99.90;;;;;;5043233;28;20117;-88
2024/01/29 02:42:52;;;;;;;3.88;1.98;;;3.40;99.90;;;;;;5054488;28;20048;-88
2024/01/29 02:45:18;;;;;;;4.45;2.22;;;3.40;99.90;;;;;;5049365;28;20040;-88
2024/01/29 02:47:43;;;;;;;3.08;2.10;;;3.50;99.90;;;;;;5066746;28;20032;-89
2024/01/29 02:50:09;;;;;;;3.72;2.78;;;4.40;99.90;;;;;;5049471;28;20106;-88
2024/01/29 02:52:36;;;;;;;5.00;1.80;;;3.40;99.90;;;;;;5068599;28;20035;-89
2024/01/29 02:55:03;;;;;;;5.55;2.50;;;3.50;99.90;;;;;;5061964;28;20053;-89
2024/01/29 02:57:28;;;;;;;4.13;2.40;;;3.30;99.90;;;;;;5068047;28;20063;-88
2024/01/29 02:59:54;;;;;;;5.55;2.13;;;3.30;99.90;;;;;;5072967;28;20082;-88
2024/01/29 03:02:20;;;;;;;3.67;2.40;;;3.30;99.90;;;;;;5035289;28;20122;-89
2024/01/29 03:04:46;;;;;;;5.32;2.33;;;3.40;99.90;;;;;;5038181;28;20040;-88
2024/01/29 03:07:11;;;;;;;3.90;2.25;;;3.40;99.90;;;;;;5068863;28;20040;-88
2024/01/29 03:09:37;;;;;;;3.45;2.45;;;3.30;99.90;;;;;;5079141;28;20056;-87
2024/01/29 03:12:03;;;;;;;3.22;2.25;;;3.40;99.90;;;;;;5061476;28;20453;-88
2024/01/29 03:14:29;;;;;;;3.67;2.40;;;3.40;99.90;;;;;;5050163;28;20430;-87
2024/01/29 03:16:55;;;;;;;4.93;2.28;;;3.40;99.90;;;;;;5060316;28;20170;-89
2024/01/29 03:19:21;;;;;;;4.07;2.10;;;3.40;99.90;;;;;;5037922;28;20469;-88
2024/01/29 03:21:47;;;;;;;6.22;2.63;;;3.40;99.90;;;;;;5055162;28;20450;-88
2024/01/29 03:24:13;;;;;;;4.70;2.35;;;3.30;99.90;;;;;;5056926;28;20055;-89
2024/01/29 03:26:39;;;;;;;4.40;2.10;;;3.20;99.90;;;;;;5066440;28;20036;-88
2024/01/29 03:29:04;;;;;;;3.45;2.10;;;3.40;99.90;;;;;;5063777;28;20044;-88
2024/01/29 03:31:30;;;;;;;4.18;2.45;;;3.20;99.90;;;;;;5037334;28;20045;-88
2024/01/29 03:33:56;;;;;;;7.93;2.40;;;3.20;99.90;;;;;;5081984;28;20037;-88
2024/01/29 03:36:21;;;;;;;3.95;2.78;;;3.20;99.90;;;;;;5054306;28;20373;-88
2024/01/29 03:38:47;;;;;;;4.25;2.38;;;3.20;99.90;;;;;;5070630;28;20043;-88
2024/01/29 03:41:13;;;;;;;5.60;2.45;;;3.20;99.90;;;;;;5059053;28;20531;-88
2024/01/29 03:43:39;;;;;;;3.53;2.25;;;4.00;99.90;;;;;;5048539;28;20032;-87
2024/01/29 03:46:04;;;;;;;4.53;2.53;;;3.20;99.90;;;;;;5065384;28;20040;-88
2024/01/29 03:48:30;;;;;;;5.38;2.85;;;3.10;99.90;;;;;;5037222;28;20112;-88
2024/01/29 03:50:56;;;;;;;3.35;2.47;;;3.10;99.90;;;;;;5054076;28;20067;-88
2024/01/29 03:53:21;;;;;;;4.97;2.38;;;3.10;99.90;;;;;;5046924;28;20032;-88
2024/01/29 03:55:47;;;;;;;5.80;2.83;;;;;;;;;;5048974;28;20082;-88
2024/01/29 03:58:13;;;;;;;5.00;2.55;;;3.00;99.90;;;;;;5063944;28;20137;-89
2024/01/29 04:00:39;;;;;;;4.30;2.70;;;3.00;99.90;;;;;;5049692;28;20032;-88
2024/01/29 04:03:06;;;;;;;4.93;2.53;;;2.90;99.90;;;;;;5046306;28;20073;-87
2024/01/29 04:05:32;;;;;;;5.25;3.03;;;3.20;99.90;;;;;;5086018;28;20075;-88
2024/01/29 04:07:58;;;;;;;4.40;2.53;;;2.90;99.90;;;;;;5050746;28;20305;-88
2024/01/29 04:10:23;;;;;;;3.97;2.83;;;2.80;99.90;;;;;;5072165;28;20112;-88
2024/01/29 04:12:49;;;;;;;4.07;2.80;;;2.80;99.90;;;;;;5053340;28;20044;-88
2024/01/29 04:15:15;;;;;;;5.80;3.33;;;2.80;99.90;;;;;;5071200;28;20374;-88
2024/01/29 04:17:40;;;;;;;4.13;2.50;;;2.70;99.90;;;;;;5092850;28;20111;-88
2024/01/29 04:20:07;;;;;;;4.43;2.67;;;2.70;99.90;;;;;;5061714;28;20075;-88
2024/01/29 04:22:33;;;;;;;4.40;2.55;;;2.70;99.90;;;;;;5076265;28;20039;-88
2024/01/29 04:25:06;;;;;;;3.85;2.47;;;2.70;99.90;;;;;;5064672;28;20043;-88
2024/01/29 04:27:32;;;;;;;5.13;2.70;;;2.60;99.90;;;;;;5081659;28;20449;-89
2024/01/29 04:29:59;;;;;;;4.68;2.92;;;2.60;99.90;;;;;;5062342;28;20050;-88
2024/01/29 04:32:25;;;;;;;3.75;2.67;;;2.60;99.90;;;;;;5076032;28;20461;-88
2024/01/29 04:34:52;;;;;;;4.28;2.67;;;3.30;99.90;;;;;;5077605;28;20035;-88
2024/01/29 04:37:18;;;;;;;4.37;2.97;;;2.60;99.90;;;;;;5081723;28;20528;-89
2024/01/29 04:39:44;;;;;;;3.77;2.23;;;2.50;99.90;;;;;;5067455;28;20048;-88
2024/01/29 04:42:10;;;;;;;4.32;2.63;;;2.50;99.90;;;;;;5077721;28;20884;-88
2024/01/29 04:44:36;;;;;;;5.68;3.47;;;2.50;99.90;;;;;;5085647;28;20063;-88
2024/01/29 04:47:02;;;;;;;4.32;2.90;;;2.50;99.90;;;;;;5088080;28;20039;-88
2024/01/29 04:49:28;;;;;;;5.32;2.90;;;2.50;99.90;;;;;;5101557;28;20044;-88
2024/01/29 04:51:54;;;;;;;5.10;3.15;;;2.70;99.90;;;;;;5041288;28;20055;-87
2024/01/29 04:54:19;;;;;;;5.10;3.40;;;2.50;99.90;;;;;;5071811;28;20054;-87
2024/01/29 04:56:46;;;;;;;5.25;3.13;;;2.50;99.90;;;;;;5072063;28;20481;-88
2024/01/29 04:59:12;;;;;;;6.03;3.50;;;2.60;99.90;;;;;;5080443;28;20031;-88
2024/01/29 05:01:37;;;;;;;4.88;2.83;;;2.50;99.90;;;;;;5070137;28;20365;-88
2024/01/29 05:04:03;;;;;;;5.93;3.20;;;2.60;99.90;;;;;;5067859;28;20074;-88
2024/01/29 05:06:29;;;;;;;4.43;3.03;;;2.60;99.90;;;;;;5075106;28;20044;-87
2024/01/29 05:08:55;;;;;;;6.68;3.35;;;2.60;99.90;;;;;;5090278;28;20114;-88
2024/01/29 05:11:21;;;;;;;5.18;2.95;;;2.70;99.90;;;;;;5067440;28;20159;-88
2024/01/29 05:13:47;;;;;;;3.88;2.75;;;2.70;99.90;;;;;;5054506;28;20241;-88
2024/01/29 05:16:15;;;;;;;5.93;3.33;;;2.60;99.90;;;;;;5038003;28;20039;-88
2024/01/29 05:18:41;;;;;;;6.70;3.40;;;2.70;99.90;;;;;;5070032;28;20048;-89
2024/01/29 05:21:07;;;;;;;4.35;3.10;;;2.70;99.90;;;;;;5051718;28;20044;-88
2024/01/29 05:23:34;;;;;;;5.07;3.13;;;2.60;99.90;;;;;;5053856;28;20032;-89
2024/01/29 05:26:00;;;;;;;4.30;2.83;;;2.80;99.90;;;;;;5043111;28;20040;-89
2024/01/29 05:28:25;;;;;;;6.13;3.38;;;2.70;99.90;;;;;;5088957;28;20051;-87
2024/01/29 05:30:52;;;;;;;3.95;2.90;;;2.70;99.90;;;;;;5075031;28;20373;-88
2024/01/29 05:33:18;;;;;;;7.15;3.50;;;2.70;99.90;;;;;;5057288;28;20039;-88
2024/01/29 05:35:43;;;;;;;5.78;3.45;;;2.80;99.90;;;;;;5034106;28;20431;-88
2024/01/29 05:38:09;;;;;;;6.97;3.45;;;2.80;99.90;;;;;;5088283;28;20038;-87
2024/01/29 05:40:35;;;;;;;5.07;3.45;;;2.80;99.90;;;;;;5044747;28;20040;-88
2024/01/29 05:43:00;;;;;;;6.43;3.10;;;2.80;99.90;;;;;;5089715;28;20425;-88
2024/01/29 05:45:26;;;;;;;4.82;3.35;;;2.80;99.90;;;;;;5071446;28;20040;-88
2024/01/29 05:47:52;;;;;;;6.97;3.58;;;2.90;99.90;;;;;;5045363;28;20136;-88
2024/01/29 05:50:18;;;;;;;5.10;3.20;;;3.20;99.90;;;;;;5088260;28;20489;-88
2024/01/29 05:52:44;;;;;;;6.20;3.50;;;2.90;99.90;;;;;;5090486;28;20038;-88
2024/01/29 05:55:09;;;;;;;4.55;3.30;;;2.80;99.90;;;;;;5038217;28;20036;-88
2024/01/29 05:57:36;;;;;;;4.35;3.03;;;2.90;99.90;;;;;;5032541;28;20388;-88
2024/01/29 06:00:06;;;;;;;4.90;3.47;;;2.80;99.90;;;;;;5060436;28;20533;-88
2024/01/29 06:02:32;;;;;;;5.03;3.33;;;2.90;99.90;;;;;;5068970;28;20036;-88
2024/01/29 06:04:58;;;;;;;7.38;3.35;;;2.90;99.90;;;;;;5032201;28;20341;-89
2024/01/29 06:07:23;;;;;;;7.95;4.00;;;2.90;99.90;;;;;;5054693;28;20602;-89
2024/01/29 06:09:49;;;;;;;6.32;3.47;;;3.00;99.90;;;;;;5067477;28;20073;-88
2024/01/29 06:12:15;;;;;;;5.93;3.58;;;2.90;99.90;;;;;;5055966;28;20047;-88
2024/01/29 06:14:41;;;;;;;6.55;3.45;;;3.00;99.90;;;;;;5062242;28;20044;-88
2024/01/29 06:17:06;;;;;;;4.93;3.70;;;3.00;99.90;;;;;;5070860;28;20035;-88
2024/01/29 06:19:32;;;;;;;5.50;3.35;;;2.90;99.90;;;;;;5081145;28;20123;-88
2024/01/29 06:21:59;;;;;;;5.15;3.70;;;3.40;99.90;;;;;;5072330;28;20035;-88
2024/01/29 06:24:24;;;;;;;6.13;3.53;;;3.00;99.90;;;;;;5085434;28;20043;-89
2024/01/29 06:26:50;;;;;;;7.43;3.55;;;3.40;99.90;;;;;;5058888;28;20478;-88
2024/01/29 06:29:16;;;;;;;5.45;3.30;;;3.00;99.90;;;;;;5067161;28;20036;-88
2024/01/29 06:31:42;;;;;;;6.07;3.63;;;3.00;99.90;;;;;;5056918;28;20044;-87
2024/01/29 06:34:08;;;;;;;4.45;3.25;;;3.10;99.90;;;;;;5061459;28;20044;-87
2024/01/29 06:36:34;;;;;;;5.88;3.40;;;3.10;99.90;;;;;;5099288;28;20041;-87
2024/01/29 06:38:59;;;;;;;4.65;3.10;;;3.10;99.90;;;;;;5085239;28;20050;-87
2024/01/29 06:41:27;;;;;;;4.90;3.70;;;3.10;99.90;;;;;;5073307;28;20047;-87
2024/01/29 06:43:54;;;;;;;5.07;3.60;;;3.10;99.90;;;;;;5089369;28;20047;-86
2024/01/29 06:46:21;;;;;;;6.70;3.92;;;3.20;99.90;;;;;;5072751;28;20051;-87
2024/01/29 06:48:47;;;;;;;4.07;2.78;;;3.20;99.90;;;;;;5077655;28;20476;-87
2024/01/29 06:51:15;;;;;;;4.93;3.47;;;3.20;99.90;;;;;;5065585;28;20035;-88
2024/01/29 06:53:40;;;;;;;6.18;3.58;;;3.20;99.90;;;;;;5094517;28;20519;-87
2024/01/29 06:56:06;;;;;;;4.90;3.50;;;3.20;99.90;;;;;;5045876;28;20040;-87
2024/01/29 06:58:36;;;;;;;5.00;3.65;;;3.30;99.90;;;;;;5051365;28;20476;-86
2024/01/29 07:01:04;;;;;;;6.22;4.13;;;3.10;99.90;;;;;;5088253;28;20047;-87
2024/01/29 07:03:30;;;;;;;5.38;3.72;;;3.10;99.90;;;;;;5090642;28;20055;-87
2024/01/29 07:05:57;;;;;;;5.80;3.80;;;3.20;99.90;;;;;;5070047;28;20050;-87
2024/01/29 07:08:23;;;;;;;6.05;4.07;;;3.10;99.90;;;;;;5079204;28;20439;-89
2024/01/29 07:10:49;;;;;;;5.22;3.70;;;3.20;99.90;;;;;;5079872;28;20059;-88
2024/01/29 07:13:14;;;;;;;5.93;3.70;;;3.10;99.90;;;;;;5055219;28;20039;-88
2024/01/29 07:15:42;;;;;;;5.07;3.70;;;3.30;99.90;;;;;;5059400;28;20032;-88
2024/01/29 07:18:07;;;;;;;5.40;3.33;;;3.00;99.90;;;;;;5053628;28;20047;-86
2024/01/29 07:20:40;;;;;;;5.82;3.88;;;3.00;99.90;;;;;;5063135;28;20036;-88
2024/01/29 07:23:07;;;;;;;6.30;3.22;;;3.00;99.90;;;;;;5081154;28;20044;-88
2024/01/29 07:25:39;;;;;;;5.72;3.70;;;3.00;99.90;;;;;;5092898;28;20063;-88
2024/01/29 07:28:06;;;;;;;6.13;3.90;;;3.00;99.90;;;;;;5081167;28;20060;-88
2024/01/29 07:30:32;;;;;;;7.45;4.25;;;3.00;99.90;;;;;;5077223;28;20039;-88
2024/01/29 07:32:58;;;;;;;7.25;3.97;;;3.00;99.90;;;;;;5071962;28;20062;-88
2024/01/29 07:35:24;;;;;;;6.28;3.72;;;3.00;99.90;;;;;;5075983;28;20085;-89
2024/01/29 07:37:50;;;;;;;6.18;3.97;;;3.00;99.90;;;;;;5072432;28;20421;-88
2024/01/29 07:40:18;;;;;;;6.28;3.88;;;3.10;99.90;;;;;;5092732;28;20048;-87
2024/01/29 07:42:43;;;;;;;6.13;4.75;;;3.10;99.90;;;;;;5104812;28;20428;-88
2024/01/29 07:45:09;;;;;;;7.22;4.20;;;3.10;99.90;;;;;;5066615;28;20128;-89
2024/01/29 07:47:35;;;;;;;7.18;4.75;;;3.20;99.90;;;;;;5066744;28;20827;-88
2024/01/29 07:50:01;;;;;;;6.95;4.55;;;3.30;99.90;;;;;;5068360;28;20040;-88
2024/01/29 07:52:27;;;;;;;11.95;7.38;;;3.30;99.90;;;;;;5074661;28;20035;-89
2024/01/29 07:54:53;;;;;;;9.38;6.75;;;3.30;99.90;;;;;;5083609;28;20468;-88
2024/01/29 07:57:18;;;;;;;9.27;5.13;;;3.30;99.90;;;;;;5089300;28;20039;-88
2024/01/29 07:59:45;;;;;;;9.70;4.82;;;3.40;99.90;;;;;;5068823;28;20108;-88
2024/01/29 08:02:12;;;;;;;6.60;4.90;;;3.50;99.90;;;;;;5073950;28;20048;-88
2024/01/29 08:04:37;;;;;;;6.53;4.78;;;3.50;99.90;;;;;;5079932;28;20474;-89
2024/01/29 08:07:03;;;;;;;6.05;4.22;;;3.80;99.90;;;;;;5075488;28;20047;-89
2024/01/29 08:09:29;;;;;;;6.70;4.65;;;3.60;99.90;;;;;;5073117;28;20342;-88
2024/01/29 08:11:55;;;;;;;7.28;4.55;;;3.60;99.90;;;;;;5073818;28;20495;-88
2024/01/29 08:14:21;;;;;;;7.63;5.15;;;3.70;99.90;;;;;;5070888;28;20046;-88
2024/01/29 08:16:48;;;;;;;7.72;4.63;;;3.70;99.90;;;;;;5075182;27;20469;-88
2024/01/29 08:19:14;;;;;;;6.65;4.72;;;3.80;99.90;;;;;;5085894;28;20067;-88
2024/01/29 08:21:39;;;;;;;6.97;4.28;;;3.80;99.90;;;;;;5088605;28;20036;-88
2024/01/29 08:24:05;;;;;;;6.22;4.40;;;3.90;99.90;;;;;;5061606;28;20463;-89
2024/01/29 08:26:31;;;;;;;5.32;4.80;;;4.00;99.90;;;;;;5083727;28;20050;-89
2024/01/29 08:28:59;;;;;;;5.75;4.38;;;4.10;99.90;;;;;;5086097;28;20278;-89
2024/01/29 08:31:25;;;;;;;8.82;5.65;;;4.10;99.90;;;;;;5093676;28;20452;-88
2024/01/29 08:33:51;;;;;;;7.68;5.10;;;4.20;99.90;;;;;;5103364;28;20072;-87
2024/01/29 08:36:20;;;;;;;9.85;5.57;;;4.30;99.90;;;;;;5097615;28;20255;-88
2024/01/29 08:38:47;;;;;;;13.20;8.13;;;4.40;99.90;;;;;;5091254;28;20101;-88
2024/01/29 08:41:15;;;;;;;11.13;7.95;;;4.40;99.90;;;;;;5080931;27;20078;-88
2024/01/29 08:43:41;;;;;;;15.05;8.05;;;4.50;99.90;;;;;;5095686;27;20130;-88
2024/01/29 08:46:07;;;;;;;13.07;7.80;;;4.60;99.90;;;;;;5110524;27;20134;-89
2024/01/29 08:48:33;;;;;;;11.15;7.18;;;4.80;99.90;;;;;;5094639;27;20100;-88
2024/01/29 08:50:59;;;;;;;16.60;9.50;;;4.80;99.90;;;;;;5084811;28;20119;-89
2024/01/29 08:53:27;;;;;;;6.53;5.25;;;4.90;99.90;;;;;;5077980;28;20050;-89
2024/01/29 08:55:53;;;;;;;7.70;4.82;;;4.90;99.90;;;;;;5067962;27;20027;-88
2024/01/29 08:58:19;;;;;;;6.97;4.78;;;5.00;99.90;;;;;;5077080;27;20042;-89
2024/01/29 09:00:45;;;;;;;6.05;4.75;;;5.00;99.90;;;;;;5088446;27;20376;-89
2024/01/29 09:03:11;;;;;;;5.53;4.53;;;5.10;99.90;;;;;;5072455;27;20092;-88
2024/01/29 09:05:38;;;;;;;5.72;4.50;;;5.20;99.90;;;;;;5077025;28;20036;-89
2024/01/29 09:08:05;;;;;;;6.05;4.68;;;5.30;99.90;;;;;;5070528;27;20290;-89
2024/01/29 09:10:31;;;;;;;4.95;4.20;;;5.30;99.90;;;;;;5047921;28;20056;-88
2024/01/29 09:12:56;;;;;;;6.95;4.35;;;5.50;99.90;;;;;;5073462;28;20405;-89
2024/01/29 09:15:22;;;;;;;6.80;5.20;;;5.50;99.90;;;;;;5037110;28;20115;-88
2024/01/29 09:17:48;;;;;;;11.70;7.50;;;5.50;99.90;;;;;;5069746;28;20496;-88
2024/01/29 09:20:14;;;;;;;7.55;5.15;;;5.50;99.90;;;;;;5057424;28;20168;-88
2024/01/29 09:22:41;;;;;;;11.90;6.00;;;5.60;99.90;;;;;;5073320;28;20105;-88
2024/01/29 09:25:07;;;;;;;8.45;5.90;;;5.70;99.90;;;;;;5052274;28;20036;-89
2024/01/29 09:27:34;;;;;;;8.98;5.80;;;5.70;99.90;;;;;;5084836;28;20063;-89
2024/01/29 09:30:00;;;;;;;5.55;4.38;;;;;;;;;;5049651;28;20067;-88
2024/01/29 09:32:26;;;;;;;7.40;5.20;;;5.90;99.90;;;;;;5063579;28;20047;-89
2024/01/29 09:34:51;;;;;;;5.82;4.68;;;5.90;99.90;;;;;;5077777;28;20462;-88
2024/01/29 09:37:18;;;;;;;8.20;5.43;;;6.00;99.90;;;;;;5059732;28;20040;-89
2024/01/29 09:39:44;;;;;;;8.73;5.37;;;6.00;99.90;;;;;;5047898;28;20071;-88
2024/01/29 09:42:17;;;;;;;7.95;5.32;;;6.00;99.90;;;;;;5063381;28;20475;-88
2024/01/29 09:44:45;;;;;;;6.93;4.90;;;6.00;99.90;;;;;;5061432;28;20054;-88
2024/01/29 09:47:13;;;;;;;6.43;5.07;;;6.10;99.90;;;;;;5087928;28;20403;-88
2024/01/29 09:49:39;;;;;;;7.45;4.85;;;6.10;99.90;;;;;;5090665;28;20040;-88
2024/01/29 09:52:10;;;;;;;6.65;5.35;;;;;;;;;;5072085;28;20046;-87
2024/01/29 09:54:37;;;;;;;7.80;5.38;;;6.20;99.90;;;;;;5070823;28;20043;-87
2024/01/29 09:57:04;;;;;;;6.35;4.82;;;6.40;99.90;;;;;;5089286;28;20032;-88
2024/01/29 09:59:30;;;;;;;8.48;5.32;;;6.40;99.90;;;;;;5063313;28;20051;-89
2024/01/29 10:01:59;;;;;;;7.65;5.25;;;6.40;99.90;;;;;;5070325;28;20401;-88
2024/01/29 10:04:25;;;;;;;13.07;8.60;;;6.40;99.90;;;;;;5062791;28;20048;-89
2024/01/29 10:06:51;;;;;;;6.93;5.43;;;6.50;99.90;;;;;;5072622;28;20078;-89
2024/01/29 10:09:17;;;;;;;8.20;6.25;;;6.50;99.90;;;;;;5052296;28;20423;-89
2024/01/29 10:11:43;;;;;;;9.07;6.00;;;6.60;99.90;;;;;;5070217;28;20075;-89
2024/01/29 10:14:09;;;;;;;10.07;5.65;;;6.60;99.90;;;;;;5063708;28;20051;-88
2024/01/29 10:16:35;;;;;;;10.13;7.90;;;6.70;99.90;;;;;;5052592;28;20485;-88
2024/01/29 10:19:02;;;;;;;7.95;5.97;;;6.70;99.90;;;;;;5066426;28;20052;-88
2024/01/29 10:21:36;;;;;;;6.93;5.35;;;6.80;99.90;;;;;;5053266;28;20040;-89
2024/01/29 10:24:02;;;;;;;6.97;6.10;;;6.80;99.90;;;;;;5065492;28;20084;-89
2024/01/29 10:26:28;;;;;;;8.05;5.68;;;6.80;99.90;;;;;;5050496;28;20033;-89
2024/01/29 10:29:05;;;;;;;7.38;5.32;;;7.00;99.90;;;;;;5074008;28;20385;-85
2024/01/29 10:31:31;;;;;;;7.93;5.90;;;7.10;99.90;;;;;;5076254;28;20063;-87
2024/01/29 10:34:01;;;;;;;7.80;5.65;;;7.20;99.90;;;;;;5043489;28;20046;-86
2024/01/29 10:36:27;;;;;;;8.20;6.22;;;;;;;;;;5066840;28;20051;-86
2024/01/29 10:38:53;;;;;;;6.75;5.63;;;7.50;99.90;;;;;;5074205;28;20092;-87
2024/01/29 10:41:22;;;;;;;8.52;5.78;;;7.50;99.90;;;;;;5055379;28;20133;-86
2024/01/29 10:43:49;;;;;;;8.38;6.35;;;7.60;99.90;;;;;;5068988;28;20036;-87
2024/01/29 10:46:21;;;;;;;7.93;5.63;;;7.60;99.90;;;;;;5066830;28;20279;-86
2024/01/29 10:48:48;;;;;;;7.70;6.00;;;7.70;99.90;;;;;;5058315;28;20040;-88
2024/01/29 10:51:15;;;;;;;11.85;6.50;;;7.80;99.90;;;;;;5069670;28;20028;-88
2024/01/29 10:53:42;;;;;;;9.00;6.30;;;7.80;99.90;;;;;;5077309;28;20044;-87
2024/01/29 10:56:09;;;;;;;10.75;6.57;;;7.90;99.90;;;;;;5083833;28;20563;-88
2024/01/29 10:58:39;;;;;;;9.07;6.17;;;7.90;99.90;;;;;;5067731;28;20105;-88
2024/01/29 11:01:10;;;;;;;9.05;6.03;;;8.00;99.90;;;;;;5061611;28;20355;-87
2024/01/29 11:03:37;;;;;;;8.25;6.30;;;8.10;99.90;;;;;;5070304;28;20118;-88
2024/01/29 11:06:18;;;;;;;8.00;6.15;;;8.20;99.90;;;;;;5066963;28;20071;-87
2024/01/29 11:08:48;;;;;;;7.57;6.35;;;8.20;99.90;;;;;;5070306;28;20070;-87
2024/01/29 11:11:14;;;;;;;11.05;7.00;;;8.30;99.90;;;;;;5069076;28;20044;-87
2024/01/29 11:13:41;;;;;;;10.15;6.13;;;8.30;99.90;;;;;;5065506;28;20048;-87
2024/01/29 11:16:07;;;;;;;8.95;6.80;;;8.30;99.90;;;;;;5053373;28;20044;-86
2024/01/29 11:18:34;;;;;;;10.50;6.55;;;8.30;99.90;;;;;;5049698;28;20079;-87
2024/01/29 11:21:00;;;;;;;9.67;6.63;;;8.30;99.90;;;;;;5074557;28;20378;-87
2024/01/29 11:23:28;;;;;;;11.25;6.53;;;8.30;99.90;;;;;;5065118;28;20462;-87
2024/01/29 11:25:57;;;;;;;10.20;6.90;;;8.20;99.90;;;;;;5067617;28;20047;-87
2024/01/29 11:28:27;;;;;;;10.35;6.85;;;8.20;99.90;;;;;;5052597;28;20109;-88
2024/01/29 11:30:53;;;;;;;10.43;7.28;;;8.20;99.90;;;;;;5059414;28;20048;-87
2024/01/29 11:33:20;;;;;;;9.27;6.70;;;8.20;99.90;;;;;;5028826;28;20032;-87
2024/01/29 11:35:49;;;;;;;11.13;7.55;;;8.20;99.90;;;;;;5066878;28;20033;-87
2024/01/29 11:38:21;;;;;;;10.50;6.90;;;8.20;99.90;;;;;;5084291;28;20036;-87
2024/01/29 11:40:47;;;;;;;10.05;6.78;;;8.20;99.90;;;;;;5066690;28;20105;-88
2024/01/29 11:43:20;;;;;;;11.90;7.25;;;8.30;99.90;;;;;;5068913;28;20047;-88
2024/01/29 11:45:48;;;;;;;9.85;6.70;;;8.20;99.90;;;;;;5054252;28;20373;-88
2024/01/29 11:48:15;;;;;;;10.35;7.00;;;8.30;99.90;;;;;;5061323;28;20033;-87
2024/01/29 11:50:45;;;;;;;11.73;7.40;;;8.20;99.90;;;;;;5047954;28;20105;-87
2024/01/29 11:53:14;;;;;;;10.50;7.18;;;8.30;99.90;;;;;;5068400;28;20024;-87
2024/01/29 11:55:40;;;;;;;9.35;6.75;;;8.40;99.90;;;;;;5066517;28;20036;-88
2024/01/29 11:58:21;;;;;;;8.67;7.37;;;8.40;99.90;;;;;;5052911;28;20044;-87
2024/01/29 12:00:49;;;;;;;12.57;7.30;;;8.40;99.90;;;;;;5039000;28;20465;-88
2024/01/29 12:03:23;;;;;;;9.57;6.88;;;8.50;99.90;;;;;;5072299;28;20077;-87
2024/01/29 12:05:51;;;;;;;10.35;7.70;;;8.50;99.90;;;;;;5064871;28;20044;-87
2024/01/29 12:08:19;;;;;;;11.07;7.47;;;8.60;99.90;;;;;;5072284;28;20089;-86
2024/01/29 12:10:45;;;;;;;13.95;8.48;;;;;;;;;;5070363;28;20105;-87
2024/01/29 12:13:20;;;;;;;11.32;7.25;;;8.70;99.90;;;;;;5059309;28;20370;-85
2024/01/29 12:15:49;;;;;;;14.05;8.35;;;8.70;99.90;;;;;;5038527;28;20035;-88
2024/01/29 12:18:20;;;;;;;15.88;8.95;;;8.80;99.90;;;;;;5061183;28;20115;-88
2024/01/29 12:20:47;;;;;;;13.63;8.32;;;8.90;99.90;;;;;;5089185;28;20044;-87
2024/01/29 12:23:16;;;;;;;15.37;7.67;;;8.90;99.90;;;;;;5041536;28;20338;-87
2024/01/29 12:25:45;;;;;;;13.90;8.35;;;8.90;99.90;;;;;;5068666;28;20462;-87
2024/01/29 12:28:11;;;;;;;12.40;8.50;;;8.90;99.90;;;;;;5056613;28;20445;-87
2024/01/29 12:30:40;;;;;;;19.33;10.13;;;8.80;99.90;;;;;;5059000;28;20094;-87
2024/01/29 12:33:07;;;;;;;16.67;8.82;;;8.90;99.90;;;;;;5061394;28;20032;-88
2024/01/29 12:35:36;;;;;;;13.68;8.98;;;8.90;99.90;;;;;;5069885;28;20343;-87
2024/01/29 12:38:12;;;;;;;13.63;8.90;;;8.90;99.90;;;;;;5060014;28;20381;-87
2024/01/29 12:40:42;;;;;;;12.23;7.68;;;8.90;99.90;;;;;;5075232;28;20136;-87
2024/01/29 12:43:10;;;;;;;14.27;8.63;;;8.80;99.90;;;;;;5060163;28;20117;-88
2024/01/29 12:45:37;;;;;;;12.95;8.73;;;8.80;99.90;;;;;;5068700;28;20036;-86
2024/01/29 12:48:17;;;;;;;12.88;8.30;;;8.80;99.90;;;;;;5070147;28;20128;-87
2024/01/29 12:50:43;;;;;;;13.15;8.45;;;8.70;99.90;;;;;;5047284;28;20049;-87
2024/01/29 12:53:10;;;;;;;12.82;8.48;;;8.70;99.90;;;;;;5066288;28;20070;-87
2024/01/29 12:55:35;;;;;;;13.50;8.68;;;8.60;99.90;;;;;;5066975;28;20044;-88